createdAt,value
2018-02-21T00:00:00.458Z,38.50
2018-02-21T00:02:30.932Z,40.53
2018-02-21T00:04:57.227Z,40.67
2018-02-21T00:07:23.502Z,40.07
2018-02-21T00:09:50.524Z,40.40
2018-02-21T00:12:19.828Z,39.97
2018-02-21T00:14:46.857Z,39.87
2018-02-21T00:17:13.129Z,39.17
2018-02-21T00:19:39.400Z,38.07
2018-02-21T00:22:11.810Z,39.17
2018-02-21T00:24:38.072Z,38.20
2018-02-21T00:27:05.064Z,40.03
2018-02-21T00:29:31.424Z,37.57
2018-02-21T00:31:57.676Z,39.07
2018-02-21T00:34:23.946Z,40.10
2018-02-21T00:36:50.266Z,40.03
2018-02-21T00:39:17.458Z,42.93
2018-02-21T00:41:44.608Z,40.80
2018-02-21T00:44:11.151Z,38.40
2018-02-21T00:46:37.423Z,41.33
2018-02-21T00:49:04.471Z,41.10
2018-02-21T00:51:31.507Z,42.77
2018-02-21T00:53:57.834Z,44.53
2018-02-21T00:56:24.053Z,43.13
2018-02-21T00:58:50.341Z,38.73
2018-02-21T01:01:16.590Z,41.00
2018-02-21T01:03:42.910Z,41.97
2018-02-21T01:06:09.195Z,43.20
2018-02-21T01:08:36.193Z,43.73
2018-02-21T01:11:04.654Z,43.50
2018-02-21T01:13:31.669Z,42.60
2018-02-21T01:15:57.914Z,42.80
2018-02-21T01:18:24.226Z,43.73
2018-02-21T01:20:50.497Z,43.67
2018-02-21T01:23:25.543Z,43.93
2018-02-21T01:25:52.437Z,43.80
2018-02-21T01:28:20.462Z,38.93
2018-02-21T01:30:46.826Z,41.20
2018-02-21T01:33:13.086Z,42.57
2018-02-21T01:35:39.360Z,44.23
2018-02-21T01:38:05.620Z,42.40
2018-02-21T01:40:31.873Z,41.83
2018-02-21T01:42:58.080Z,35.67
2018-02-21T01:45:24.401Z,42.53
2018-02-21T01:47:50.719Z,39.67
2018-02-21T01:50:16.956Z,39.90
2018-02-21T01:52:43.230Z,41.63
2018-02-21T01:55:09.460Z,42.03
2018-02-21T01:57:35.729Z,40.80
2018-02-21T02:00:02.058Z,35.00
2018-02-21T02:02:29.028Z,40.63
2018-02-21T02:04:56.048Z,40.77
2018-02-21T02:07:22.285Z,38.43
2018-02-21T02:09:48.545Z,39.53
2018-02-21T02:12:14.818Z,38.17
2018-02-21T02:14:41.078Z,35.53
2018-02-21T02:17:07.330Z,39.40
2018-02-21T02:19:33.598Z,37.90
2018-02-21T02:21:59.910Z,35.90
2018-02-21T02:24:26.168Z,36.30
2018-02-21T02:26:53.195Z,34.37
2018-02-21T02:29:19.444Z,37.17
2018-02-21T02:31:45.712Z,34.33
2018-02-21T02:34:11.968Z,35.43
2018-02-21T02:36:38.335Z,37.37
2018-02-21T02:39:17.796Z,34.33
2018-02-21T02:41:44.782Z,37.47
2018-02-21T02:44:11.006Z,38.13
2018-02-21T02:46:37.272Z,35.70
2018-02-21T02:49:03.517Z,35.57
2018-02-21T02:51:29.805Z,34.00
2018-02-21T02:53:59.617Z,35.07
2018-02-21T02:56:25.893Z,34.83
2018-02-21T02:58:52.177Z,33.93
2018-02-21T03:01:19.128Z,33.47
2018-02-21T03:03:45.343Z,32.60
2018-02-21T03:06:11.553Z,33.63
2018-02-21T03:08:38.558Z,32.57
2018-02-21T03:11:05.900Z,32.73
2018-02-21T03:13:32.160Z,30.53
2018-02-21T03:15:58.470Z,33.50
2018-02-21T03:18:25.485Z,31.67
2018-02-21T03:20:51.776Z,32.00
2018-02-21T03:23:18.014Z,31.97
2018-02-21T03:25:45.035Z,31.10
2018-02-21T03:28:11.327Z,30.50
2018-02-21T03:30:38.297Z,30.93
2018-02-21T03:33:04.544Z,31.87
2018-02-21T03:35:30.845Z,32.63
2018-02-21T03:37:57.063Z,32.50
2018-02-21T03:40:23.303Z,30.50
2018-02-21T03:42:49.568Z,32.20
2018-02-21T03:45:15.828Z,32.60
2018-02-21T03:47:42.839Z,30.97
2018-02-21T03:50:09.067Z,31.70
2018-02-21T03:52:35.311Z,30.80
2018-02-21T03:55:01.568Z,31.07
2018-02-21T03:57:27.844Z,31.80
2018-02-21T03:59:54.946Z,30.03
2018-02-21T04:02:21.200Z,31.33
2018-02-21T04:04:47.468Z,30.87
2018-02-21T04:07:13.725Z,31.73
2018-02-21T04:09:40.778Z,29.50
2018-02-21T04:12:07.038Z,30.07
2018-02-21T04:14:33.339Z,31.33
2018-02-21T04:16:59.561Z,31.50
2018-02-21T04:19:25.820Z,30.77
2018-02-21T04:21:52.061Z,32.17
2018-02-21T04:24:18.389Z,30.37
2018-02-21T04:26:44.636Z,31.80
2018-02-21T04:29:10.884Z,31.23
2018-02-21T04:31:37.278Z,33.57
2018-02-21T04:34:03.551Z,30.53
2018-02-21T04:36:29.779Z,32.40
2018-02-21T04:38:56.035Z,31.27
2018-02-21T04:41:22.370Z,30.93
2018-02-21T04:43:48.654Z,29.87
2018-02-21T04:46:14.886Z,30.27
2018-02-21T04:48:41.189Z,31.93
2018-02-21T04:51:07.603Z,32.40
2018-02-21T04:53:34.652Z,29.73
2018-02-21T04:56:06.957Z,31.33
2018-02-21T04:58:44.862Z,31.13
2018-02-21T05:01:11.167Z,33.00
2018-02-21T05:03:37.482Z,32.03
2018-02-21T05:06:03.700Z,33.23
2018-02-21T05:08:30.685Z,33.27
2018-02-21T05:10:56.925Z,34.37
2018-02-21T05:13:23.209Z,32.93
2018-02-21T05:15:49.456Z,33.70
2018-02-21T05:18:15.800Z,34.83
2018-02-21T05:20:42.082Z,34.30
2018-02-21T05:23:08.382Z,36.17
2018-02-21T05:25:34.648Z,34.20
2018-02-21T05:28:01.642Z,35.17
2018-02-21T05:30:27.929Z,34.67
2018-02-21T05:32:54.199Z,37.17
2018-02-21T05:35:20.478Z,33.00
2018-02-21T05:37:47.484Z,35.23
2018-02-21T05:40:14.498Z,35.70
2018-02-21T05:42:40.762Z,33.47
2018-02-21T05:45:07.075Z,36.00
2018-02-21T05:47:33.340Z,36.20
2018-02-21T05:49:59.579Z,37.80
2018-02-21T05:52:25.877Z,34.13
2018-02-21T05:54:52.428Z,34.77
2018-02-21T05:57:18.708Z,36.60
2018-02-21T06:00:00.741Z,33.13
2018-02-21T06:02:27.057Z,35.53
2018-02-21T06:04:53.315Z,35.03
2018-02-21T06:07:19.657Z,35.37
2018-02-21T06:09:45.954Z,34.00
2018-02-21T06:12:12.214Z,34.00
2018-02-21T06:14:38.494Z,36.23
2018-02-21T06:17:04.744Z,36.87
2018-02-21T06:19:30.981Z,36.20
2018-02-21T06:21:57.216Z,34.10
2018-02-21T06:24:23.543Z,35.10
2018-02-21T06:26:50.565Z,39.20
2018-02-21T06:29:16.792Z,36.30
2018-02-21T06:31:44.895Z,39.33
2018-02-21T06:34:12.205Z,35.97
2018-02-21T06:36:40.460Z,35.37
2018-02-21T06:39:06.749Z,39.03
2018-02-21T06:41:33.026Z,36.03
2018-02-21T06:43:59.294Z,35.70
2018-02-21T06:46:25.594Z,37.33
2018-02-21T06:48:52.602Z,37.63
2018-02-21T06:51:18.882Z,36.80
2018-02-21T06:53:45.899Z,35.93
2018-02-21T06:56:12.201Z,39.50
2018-02-21T06:58:39.168Z,39.17
2018-02-21T07:01:05.411Z,38.30
2018-02-21T07:03:31.699Z,36.80
2018-02-21T07:06:00.099Z,37.90
2018-02-21T07:08:26.401Z,39.27
2018-02-21T07:10:52.701Z,38.53
2018-02-21T07:13:18.970Z,38.50
2018-02-21T07:15:45.333Z,37.83
2018-02-21T07:18:11.610Z,36.97
2018-02-21T07:20:37.995Z,39.77
2018-02-21T07:23:04.324Z,36.50
2018-02-21T07:25:37.324Z,37.23
2018-02-21T07:28:03.578Z,37.23
2018-02-21T07:30:30.609Z,40.07
2018-02-21T07:32:56.912Z,38.90
2018-02-21T07:35:23.188Z,37.60
2018-02-21T07:37:49.737Z,39.87
2018-02-21T07:40:16.010Z,40.30
2018-02-21T07:42:42.261Z,41.10
2018-02-21T07:45:09.269Z,39.13
2018-02-21T07:47:35.579Z,38.03
2018-02-21T07:50:01.883Z,38.63
2018-02-21T07:52:28.898Z,37.13
2018-02-21T07:54:55.184Z,36.73
2018-02-21T07:57:28.490Z,38.73
2018-02-21T07:59:54.708Z,37.17
2018-02-21T08:02:21.103Z,38.63
2018-02-21T08:04:47.405Z,34.70
2018-02-21T08:07:13.698Z,35.77
2018-02-21T08:09:39.938Z,33.63
2018-02-21T08:12:06.221Z,37.23
2018-02-21T08:14:32.636Z,37.60
2018-02-21T08:16:58.902Z,37.27
2018-02-21T08:19:25.193Z,38.00
2018-02-21T08:21:54.323Z,38.03
2018-02-21T08:24:20.655Z,38.90
2018-02-21T08:26:46.908Z,37.77
2018-02-21T08:29:13.214Z,36.77
2018-02-21T08:31:40.229Z,37.27
2018-02-21T08:34:06.525Z,38.10
2018-02-21T08:36:32.785Z,35.03
2018-02-21T08:38:59.093Z,36.90
2018-02-21T08:41:25.386Z,36.30
2018-02-21T08:43:51.654Z,34.03
2018-02-21T08:46:18.670Z,35.90
2018-02-21T08:48:44.922Z,29.80
2018-02-21T08:51:11.233Z,34.23
2018-02-21T08:53:38.246Z,34.83
2018-02-21T08:56:04.473Z,36.33
2018-02-21T08:58:30.767Z,35.13
2018-02-21T09:00:57.746Z,32.07
2018-02-21T09:03:24.061Z,38.97
2018-02-21T09:05:51.078Z,33.83
2018-02-21T09:08:17.354Z,37.87
2018-02-21T09:10:43.613Z,38.27
2018-02-21T09:13:10.687Z,38.03
2018-02-21T09:15:37.001Z,38.23
2018-02-21T09:18:03.351Z,39.07
2018-02-21T09:20:29.637Z,38.53
2018-02-21T09:22:55.919Z,37.90
2018-02-21T09:25:22.230Z,36.80
2018-02-21T09:27:48.584Z,36.53
2018-02-21T09:30:14.932Z,39.33
2018-02-21T09:32:41.233Z,30.97
2018-02-21T09:35:07.531Z,37.13
2018-02-21T09:37:33.810Z,39.13
2018-02-21T09:40:00.851Z,37.53
2018-02-21T09:42:27.181Z,36.50
2018-02-21T09:44:53.655Z,33.23
2018-02-21T09:47:19.982Z,32.43
2018-02-21T09:49:47.373Z,34.80
2018-02-21T09:52:14.461Z,37.43
2018-02-21T09:54:40.785Z,36.17
2018-02-21T09:57:07.037Z,35.07
2018-02-21T09:59:33.325Z,29.97
2018-02-21T10:01:59.624Z,34.43
2018-02-21T10:04:26.017Z,34.53
2018-02-21T10:06:53.170Z,33.70
2018-02-21T10:09:19.646Z,33.47
2018-02-21T10:11:46.700Z,34.53
2018-02-21T10:14:13.814Z,33.57
2018-02-21T10:16:40.111Z,34.30
2018-02-21T10:19:07.124Z,34.77
2018-02-21T10:21:33.378Z,35.37
2018-02-21T10:23:59.659Z,35.90
2018-02-21T10:26:25.969Z,35.37
2018-02-21T10:28:53.067Z,35.50
2018-02-21T10:31:20.194Z,35.77
2018-02-21T10:33:48.162Z,36.27
2018-02-21T10:36:14.459Z,35.80
2018-02-21T10:38:40.762Z,34.70
2018-02-21T10:41:14.254Z,34.07
2018-02-21T10:43:40.546Z,37.73
2018-02-21T10:46:06.836Z,31.77
2018-02-21T10:48:33.136Z,35.60
2018-02-21T10:51:00.210Z,33.13
2018-02-21T10:53:26.515Z,29.67
2018-02-21T10:55:52.779Z,36.07
2018-02-21T10:58:19.872Z,34.67
2018-02-21T11:00:52.307Z,34.40
2018-02-21T11:03:18.609Z,31.00
2018-02-21T11:05:44.862Z,35.63
2018-02-21T11:08:11.177Z,31.90
2018-02-21T11:10:37.477Z,35.20
2018-02-21T11:13:04.779Z,35.63
2018-02-21T11:15:31.039Z,34.13
2018-02-21T11:17:57.387Z,34.50
2018-02-21T11:20:23.705Z,35.17
2018-02-21T11:22:50.003Z,31.17
2018-02-21T11:25:16.261Z,33.83
2018-02-21T11:27:43.269Z,32.07
2018-02-21T11:30:09.594Z,35.40
2018-02-21T11:32:36.015Z,33.60
2018-02-21T11:35:02.319Z,36.00
2018-02-21T11:37:28.610Z,33.00
2018-02-21T11:39:55.088Z,31.60
2018-02-21T11:42:21.351Z,33.67
2018-02-21T11:44:47.618Z,33.60
2018-02-21T11:47:14.685Z,33.70
2018-02-21T11:49:46.074Z,35.40
2018-02-21T11:52:12.399Z,33.30
2018-02-21T11:54:39.530Z,32.63
2018-02-21T11:57:05.800Z,33.57
2018-02-21T11:59:32.186Z,32.10
2018-02-21T12:02:01.950Z,35.03
2018-02-21T12:04:28.216Z,34.10
2018-02-21T12:06:54.480Z,33.97
2018-02-21T12:09:20.791Z,34.57
2018-02-21T12:11:48.802Z,35.23
2018-02-21T12:14:15.036Z,34.70
2018-02-21T12:16:41.298Z,32.77
2018-02-21T12:19:07.664Z,30.50
2018-02-21T12:21:34.019Z,32.33
2018-02-21T12:24:00.276Z,29.03
2018-02-21T12:26:26.574Z,31.57
2018-02-21T12:28:52.829Z,32.93
2018-02-21T12:31:20.332Z,32.37
2018-02-21T12:33:51.254Z,34.83
2018-02-21T12:36:18.322Z,33.43
2018-02-21T12:41:44.503Z,32.67
2018-02-21T12:44:10.836Z,32.60
2018-02-21T12:46:37.081Z,31.77
2018-02-21T12:49:03.245Z,30.93
2018-02-21T12:51:29.410Z,30.43
2018-02-21T12:53:55.563Z,32.00
2018-02-21T12:56:21.733Z,31.40
2018-02-21T12:58:47.925Z,28.27
2018-02-21T13:01:14.139Z,30.60
2018-02-21T13:03:41.300Z,31.13
2018-02-21T13:06:07.517Z,30.97
2018-02-21T13:08:33.788Z,30.83
2018-02-21T13:11:00.721Z,30.07
2018-02-21T13:13:26.937Z,29.87
2018-02-21T13:15:53.149Z,31.40
2018-02-21T13:18:20.091Z,31.70
2018-02-21T13:20:46.277Z,31.77
2018-02-21T13:23:13.545Z,30.30
2018-02-21T13:25:40.029Z,31.63
2018-02-21T13:28:06.216Z,30.00
2018-02-21T13:30:32.359Z,30.80
2018-02-21T13:32:58.631Z,31.93
2018-02-21T13:35:28.955Z,30.43
2018-02-21T13:37:55.300Z,30.93
2018-02-21T13:40:21.509Z,30.83
2018-02-21T13:42:47.652Z,31.13
2018-02-21T13:45:19.409Z,30.90
2018-02-21T13:47:45.625Z,26.83
2018-02-21T13:50:11.821Z,29.77
2018-02-21T13:52:37.973Z,27.90
2018-02-21T13:55:04.151Z,28.77
2018-02-21T13:57:31.101Z,26.77
2018-02-21T13:59:57.233Z,27.80
2018-02-21T14:02:23.450Z,27.57
2018-02-21T14:04:51.811Z,26.77
2018-02-21T14:07:17.975Z,27.47
2018-02-21T14:09:44.117Z,27.60
2018-02-21T14:12:10.312Z,26.93
2018-02-21T14:14:37.197Z,27.27
2018-02-21T14:17:03.339Z,26.67
2018-02-21T14:19:34.027Z,26.33
2018-02-21T14:22:00.183Z,27.00
2018-02-21T14:24:27.100Z,25.27
2018-02-21T14:26:53.543Z,25.10
2018-02-21T14:29:19.724Z,28.10
2018-02-21T14:31:46.626Z,28.23
2018-02-21T14:34:12.759Z,27.83
2018-02-21T14:36:38.927Z,29.07
2018-02-21T14:39:05.083Z,27.90
2018-02-21T14:41:31.270Z,28.07
2018-02-21T14:43:57.449Z,27.03
2018-02-21T14:46:27.420Z,26.17
2018-02-21T14:48:54.861Z,27.43
2018-02-21T14:51:21.819Z,26.73
2018-02-21T14:53:48.725Z,26.00
2018-02-21T14:56:14.894Z,24.60
2018-02-21T14:58:41.044Z,26.30
2018-02-21T15:01:07.216Z,24.10
2018-02-21T15:03:34.102Z,23.10
2018-02-21T15:06:00.238Z,23.77
2018-02-21T15:08:26.482Z,22.83
2018-02-21T15:10:52.654Z,22.30
2018-02-21T15:13:18.788Z,17.43
2018-02-21T15:15:44.956Z,22.73
2018-02-21T15:18:11.849Z,22.13
2018-02-21T15:20:38.030Z,22.57
2018-02-21T15:23:04.179Z,21.30
2018-02-21T15:25:31.136Z,21.70
2018-02-21T15:27:57.318Z,20.63
2018-02-21T15:30:23.564Z,19.80
2018-02-21T15:32:49.777Z,21.63
2018-02-21T15:35:15.962Z,23.27
2018-02-21T15:37:42.914Z,20.97
2018-02-21T15:40:09.089Z,23.07
2018-02-21T15:42:35.277Z,23.10
2018-02-21T15:45:01.421Z,21.77
2018-02-21T15:47:27.590Z,23.53
2018-02-21T15:49:53.783Z,22.70
2018-02-21T15:52:20.749Z,22.67
2018-02-21T15:54:46.941Z,23.43
2018-02-21T15:57:13.101Z,23.53
2018-02-21T15:59:40.035Z,22.33
2018-02-21T16:02:06.198Z,20.87
2018-02-21T16:04:33.127Z,22.07
2018-02-21T16:06:59.346Z,22.23
2018-02-21T16:09:25.575Z,22.37
2018-02-21T16:11:51.807Z,21.47
2018-02-21T16:14:20.047Z,22.73
2018-02-21T16:16:46.202Z,20.93
2018-02-21T16:19:12.409Z,20.43
2018-02-21T16:21:40.230Z,20.47
2018-02-21T16:24:06.459Z,21.33
2018-02-21T16:26:33.454Z,20.80
2018-02-21T16:28:59.605Z,20.87
2018-02-21T16:31:25.800Z,21.53
2018-02-21T16:33:52.055Z,19.97
2018-02-21T16:36:18.293Z,20.10
2018-02-21T16:38:44.487Z,21.13
2018-02-21T16:41:10.665Z,19.40
2018-02-21T16:43:37.585Z,20.50
2018-02-21T16:46:03.766Z,19.67
2018-02-21T16:48:30.675Z,19.63
2018-02-21T16:50:57.008Z,19.80
2018-02-21T16:53:23.309Z,19.53
2018-02-21T16:55:50.250Z,19.27
2018-02-21T16:58:17.241Z,18.00
2018-02-21T17:00:43.382Z,20.60
2018-02-21T17:03:09.573Z,19.07
2018-02-21T17:05:35.731Z,19.70
2018-02-21T17:08:01.892Z,19.07
2018-02-21T17:10:28.123Z,18.53
2018-02-21T17:12:55.072Z,18.20
2018-02-21T17:15:22.145Z,18.13
2018-02-21T17:17:48.328Z,16.03
2018-02-21T17:20:14.521Z,16.90
2018-02-21T17:22:41.449Z,15.57
2018-02-21T17:25:10.917Z,15.63
2018-02-21T17:27:37.117Z,15.80
2018-02-21T17:30:03.302Z,16.37
2018-02-21T17:32:34.463Z,16.13
2018-02-21T17:35:00.617Z,14.60
2018-02-21T17:37:26.905Z,15.33
2018-02-21T17:39:57.265Z,16.30
2018-02-21T17:42:23.456Z,15.67
2018-02-21T17:44:49.685Z,15.23
2018-02-21T17:47:15.887Z,14.00
2018-02-21T17:49:42.069Z,15.53
2018-02-21T17:52:08.267Z,15.40
2018-02-21T17:54:34.473Z,15.07
2018-02-21T17:57:21.615Z,14.93
2018-02-21T17:59:47.818Z,15.20
2018-02-21T18:02:14.003Z,14.87
2018-02-21T18:04:40.966Z,15.57
2018-02-21T18:07:07.900Z,14.73
2018-02-21T18:09:34.091Z,15.93
2018-02-21T18:12:00.241Z,16.87
2018-02-21T18:14:28.020Z,16.50
2018-02-21T18:16:54.236Z,14.87
2018-02-21T18:19:22.551Z,16.40
2018-02-21T18:21:48.766Z,16.50
2018-02-21T18:24:15.017Z,15.90
2018-02-21T18:26:48.162Z,15.60
2018-02-21T18:29:14.318Z,15.87
2018-02-21T18:31:41.227Z,15.73
2018-02-21T18:34:07.490Z,14.73
2018-02-21T18:36:33.682Z,16.30
2018-02-21T18:38:59.861Z,16.60
2018-02-21T18:41:27.135Z,15.40
2018-02-21T18:43:53.423Z,15.70
2018-02-21T18:46:19.639Z,15.50
2018-02-21T18:48:46.666Z,14.87
2018-02-21T18:51:12.891Z,15.93
2018-02-21T18:53:39.033Z,16.93
2018-02-21T18:56:05.265Z,17.47
2018-02-21T18:58:31.399Z,17.47
2018-02-21T19:00:57.564Z,18.40
2018-02-21T19:03:23.740Z,17.80
2018-02-21T19:05:50.868Z,18.50
2018-02-21T19:08:17.040Z,19.33
2018-02-21T19:10:43.222Z,18.63
2018-02-21T19:13:09.403Z,18.27
2018-02-21T19:15:35.585Z,18.80
2018-02-21T19:18:01.858Z,20.47
2018-02-21T19:20:28.033Z,18.17
2018-02-21T19:22:56.326Z,18.20
2018-02-21T19:25:22.516Z,18.47
2018-02-21T19:27:48.707Z,17.30
2018-02-21T19:30:14.853Z,17.70
2018-02-21T19:32:41.059Z,17.80
2018-02-21T19:35:07.227Z,18.53
2018-02-21T19:37:33.387Z,16.33
2018-02-21T19:40:00.301Z,17.63
2018-02-21T19:42:52.064Z,18.97
2018-02-21T19:45:18.272Z,17.30
2018-02-21T19:47:44.430Z,18.10
2018-02-21T19:50:10.724Z,17.23
2018-02-21T19:52:36.917Z,17.90
2018-02-21T19:55:03.124Z,18.67
2018-02-21T19:57:29.354Z,17.50
2018-02-21T19:59:55.668Z,18.13
2018-02-21T20:02:22.621Z,18.13
2018-02-21T20:04:49.572Z,17.87
2018-02-21T20:07:16.465Z,18.07
2018-02-21T20:09:42.655Z,18.20
2018-02-21T20:12:08.838Z,17.13
2018-02-21T20:14:35.013Z,16.53
2018-02-21T20:17:01.166Z,17.67
2018-02-21T20:19:27.743Z,16.93
2018-02-21T20:21:54.653Z,17.83
2018-02-21T20:24:20.867Z,18.20
2018-02-21T20:26:47.009Z,18.27
2018-02-21T20:29:13.134Z,18.37
2018-02-21T20:31:39.303Z,17.17
2018-02-21T20:34:05.519Z,18.83
2018-02-21T20:36:31.683Z,16.23
2018-02-21T20:38:57.875Z,17.50
2018-02-21T20:41:24.804Z,17.30
2018-02-21T20:43:51.003Z,18.57
2018-02-21T20:46:19.255Z,18.03
2018-02-21T20:48:46.168Z,17.07
2018-02-21T20:51:13.433Z,18.10
2018-02-21T20:53:39.659Z,16.93
2018-02-21T20:56:05.837Z,18.10
2018-02-21T20:58:32.005Z,17.13
2018-02-21T21:00:58.921Z,17.43
2018-02-21T21:03:25.848Z,18.50
2018-02-21T21:05:53.144Z,17.40
2018-02-21T21:08:19.338Z,17.47
2018-02-21T21:10:48.992Z,16.80
2018-02-21T21:13:16.304Z,16.83
2018-02-21T21:15:43.290Z,17.43
2018-02-21T21:18:11.273Z,18.27
2018-02-21T21:20:51.631Z,17.37
2018-02-21T21:23:17.893Z,17.07
2018-02-21T21:25:44.181Z,17.20
2018-02-21T21:28:10.414Z,17.47
2018-02-21T21:30:37.388Z,16.97
2018-02-21T21:33:03.698Z,18.13
2018-02-21T21:35:29.918Z,16.70
2018-02-21T21:37:56.285Z,15.63
2018-02-21T21:40:22.545Z,15.73
2018-02-21T21:42:49.924Z,15.93
2018-02-21T21:45:16.981Z,17.80
2018-02-21T21:47:43.254Z,18.87
2018-02-21T21:50:09.534Z,17.70
2018-02-21T21:52:39.834Z,16.77
2018-02-21T21:55:10.329Z,15.50
2018-02-21T21:57:36.582Z,16.70
2018-02-21T22:00:02.896Z,17.23
2018-02-21T22:02:34.462Z,15.90
2018-02-21T22:05:00.731Z,17.67
2018-02-21T22:07:27.000Z,16.27
2018-02-21T22:09:54.049Z,16.70
2018-02-21T22:12:20.482Z,17.27
2018-02-21T22:14:50.868Z,16.70
2018-02-21T22:17:17.135Z,16.90
2018-02-21T22:19:43.358Z,16.83
2018-02-21T22:22:09.611Z,17.37
2018-02-21T22:24:35.927Z,17.77
2018-02-21T22:27:02.172Z,17.70
2018-02-21T22:29:28.486Z,19.60
2018-02-21T22:31:55.508Z,18.70
2018-02-21T22:34:21.753Z,19.10
2018-02-21T22:36:48.685Z,18.83
2018-02-21T22:39:15.027Z,19.33
2018-02-21T22:41:41.276Z,18.47
2018-02-21T22:44:08.360Z,18.80
2018-02-21T22:46:34.650Z,17.47
2018-02-21T22:49:00.942Z,17.77
2018-02-21T22:51:28.326Z,18.30
2018-02-21T22:53:54.666Z,19.93
2018-02-21T22:56:20.983Z,19.53
2018-02-21T22:58:47.261Z,16.87
2018-02-21T23:01:14.262Z,19.80
2018-02-21T23:03:40.570Z,19.67
2018-02-21T23:06:07.555Z,21.87
2018-02-21T23:08:33.823Z,19.93
2018-02-21T23:11:00.073Z,20.07
2018-02-21T23:13:26.381Z,20.20
2018-02-21T23:15:52.729Z,21.80
2018-02-21T23:18:20.759Z,21.93
2018-02-21T23:20:46.994Z,21.50
2018-02-21T23:23:13.321Z,20.50
2018-02-21T23:25:46.355Z,20.83
2018-02-21T23:28:13.525Z,20.13
2018-02-21T23:30:39.749Z,22.13
2018-02-21T23:33:07.083Z,21.03
2018-02-21T23:35:33.350Z,21.97
2018-02-21T23:38:01.657Z,19.17
2018-02-21T23:40:27.997Z,20.83
2018-02-21T23:42:54.992Z,21.53
2018-02-21T23:45:21.413Z,19.10
2018-02-21T23:47:48.394Z,20.63
2018-02-21T23:50:14.785Z,20.17
2018-02-21T23:52:41.179Z,19.40
2018-02-21T23:55:07.386Z,20.47
2018-02-21T23:57:34.430Z,18.67
